sensor_id;sensor_type;location;lat;lon;timestamp;P1;durP1;ratioP1;P2;durP2;ratioP2
9208;SDS011;4639;48.862;9.188;2022-12-10T00:00:21;29.90;;;23.85;;
9208;SDS011;4639;48.862;9.188;2022-12-10T00:02:46;34.17;;;24.23;;
9208;SDS011;4639;48.862;9.188;2022-12-10T00:05:12;34.10;;;24.35;;
9208;SDS011;4639;48.862;9.188;2022-12-10T00:07:38;31.30;;;24.45;;
9208;SDS011;4639;48.862;9.188;2022-12-10T00:10:03;29.45;;;22.80;;
9208;SDS011;4639;48.862;9.188;2022-12-10T00:12:29;31.15;;;24.55;;
9208;SDS011;4639;48.862;9.188;2022-12-10T00:14:55;28.88;;;22.55;;
9208;SDS011;4639;48.862;9.188;2022-12-10T00:17:20;28.13;;;22.35;;
9208;SDS011;4639;48.862;9.188;2022-12-10T00:19:46;30.88;;;23.73;;
9208;SDS011;4639;48.862;9.188;2022-12-10T00:22:11;29.42;;;22.90;;
9208;SDS011;4639;48.862;9.188;2022-12-10T00:24:37;32.67;;;23.88;;
9208;SDS011;4639;48.862;9.188;2022-12-10T00:27:03;28.65;;;22.85;;
9208;SDS011;4639;48.862;9.188;2022-12-10T00:29:28;29.88;;;23.45;;
9208;SDS011;4639;48.862;9.188;2022-12-10T00:31:54;31.95;;;24.38;;
9208;SDS011;4639;48.862;9.188;2022-12-10T00:34:19;31.20;;;24.17;;
9208;SDS011;4639;48.862;9.188;2022-12-10T00:36:45;29.05;;;23.15;;
9208;SDS011;4639;48.862;9.188;2022-12-10T00:39:14;32.58;;;24.58;;
9208;SDS011;4639;48.862;9.188;2022-12-10T00:41:41;31.80;;;24.50;;
9208;SDS011;4639;48.862;9.188;2022-12-10T00:44:06;30.17;;;23.52;;
9208;SDS011;4639;48.862;9.188;2022-12-10T00:46:32;30.98;;;23.00;;
9208;SDS011;4639;48.862;9.188;2022-12-10T00:48:58;32.55;;;23.80;;
9208;SDS011;4639;48.862;9.188;2022-12-10T00:51:25;27.73;;;22.63;;
9208;SDS011;4639;48.862;9.188;2022-12-10T00:53:52;31.35;;;24.05;;
9208;SDS011;4639;48.862;9.188;2022-12-10T00:56:20;31.67;;;24.10;;
9208;SDS011;4639;48.862;9.188;2022-12-10T00:58:48;31.25;;;24.30;;
9208;SDS011;4639;48.862;9.188;2022-12-10T01:01:22;30.95;;;23.60;;
9208;SDS011;4639;48.862;9.188;2022-12-10T01:03:57;36.15;;;23.55;;
9208;SDS011;4639;48.862;9.188;2022-12-10T01:06:33;30.60;;;23.00;;
9208;SDS011;4639;48.862;9.188;2022-12-10T01:09:03;32.00;;;24.20;;
9208;SDS011;4639;48.862;9.188;2022-12-10T01:11:31;29.00;;;21.95;;
9208;SDS011;4639;48.862;9.188;2022-12-10T01:13:59;28.80;;;23.63;;
9208;SDS011;4639;48.862;9.188;2022-12-10T01:16:25;29.98;;;23.13;;
9208;SDS011;4639;48.862;9.188;2022-12-10T01:18:55;31.20;;;23.90;;
9208;SDS011;4639;48.862;9.188;2022-12-10T01:21:22;28.63;;;22.85;;
9208;SDS011;4639;48.862;9.188;2022-12-10T01:23:49;29.27;;;23.17;;
9208;SDS011;4639;48.862;9.188;2022-12-10T01:26:17;29.10;;;22.90;;
9208;SDS011;4639;48.862;9.188;2022-12-10T01:28:47;30.35;;;24.02;;
9208;SDS011;4639;48.862;9.188;2022-12-10T01:31:15;30.98;;;23.58;;
9208;SDS011;4639;48.862;9.188;2022-12-10T01:33:45;31.08;;;24.40;;
9208;SDS011;4639;48.862;9.188;2022-12-10T01:36:12;29.58;;;22.80;;
9208;SDS011;4639;48.862;9.188;2022-12-10T01:38:42;30.83;;;24.23;;
9208;SDS011;4639;48.862;9.188;2022-12-10T01:41:10;29.83;;;23.27;;
9208;SDS011;4639;48.862;9.188;2022-12-10T01:44:02;31.50;;;24.05;;
9208;SDS011;4639;48.862;9.188;2022-12-10T01:46:29;29.27;;;23.08;;
9208;SDS011;4639;48.862;9.188;2022-12-10T01:48:57;30.88;;;23.88;;
9208;SDS011;4639;48.862;9.188;2022-12-10T01:51:26;29.67;;;23.65;;
9208;SDS011;4639;48.862;9.188;2022-12-10T01:53:54;29.60;;;23.15;;
9208;SDS011;4639;48.862;9.188;2022-12-10T01:56:20;31.08;;;23.17;;
9208;SDS011;4639;48.862;9.188;2022-12-10T01:58:47;32.25;;;24.20;;
9208;SDS011;4639;48.862;9.188;2022-12-10T02:01:24;29.08;;;23.13;;
9208;SDS011;4639;48.862;9.188;2022-12-10T02:06:45;28.98;;;22.73;;
9208;SDS011;4639;48.862;9.188;2022-12-10T02:09:25;31.58;;;23.33;;
9208;SDS011;4639;48.862;9.188;2022-12-10T02:12:23;29.90;;;23.35;;
9208;SDS011;4639;48.862;9.188;2022-12-10T02:15:13;29.70;;;22.95;;
9208;SDS011;4639;48.862;9.188;2022-12-10T02:17:55;29.02;;;22.83;;
9208;SDS011;4639;48.862;9.188;2022-12-10T02:20:31;32.42;;;23.60;;
9208;SDS011;4639;48.862;9.188;2022-12-10T02:23:08;30.17;;;22.73;;
9208;SDS011;4639;48.862;9.188;2022-12-10T02:25:41;30.38;;;23.65;;
9208;SDS011;4639;48.862;9.188;2022-12-10T02:30:42;31.30;;;24.13;;
9208;SDS011;4639;48.862;9.188;2022-12-10T02:33:09;30.00;;;23.20;;
9208;SDS011;4639;48.862;9.188;2022-12-10T02:35:36;26.67;;;22.13;;
9208;SDS011;4639;48.862;9.188;2022-12-10T02:38:13;29.77;;;23.33;;
9208;SDS011;4639;48.862;9.188;2022-12-10T02:40:46;30.38;;;23.83;;
9208;SDS011;4639;48.862;9.188;2022-12-10T02:43:14;30.00;;;22.20;;
9208;SDS011;4639;48.862;9.188;2022-12-10T02:45:41;29.25;;;23.05;;
9208;SDS011;4639;48.862;9.188;2022-12-10T02:48:08;29.75;;;23.35;;
9208;SDS011;4639;48.862;9.188;2022-12-10T02:50:36;30.92;;;23.13;;
9208;SDS011;4639;48.862;9.188;2022-12-10T02:53:01;29.52;;;21.73;;
9208;SDS011;4639;48.862;9.188;2022-12-10T02:55:28;30.23;;;23.25;;
9208;SDS011;4639;48.862;9.188;2022-12-10T03:03:48;28.77;;;22.42;;
9208;SDS011;4639;48.862;9.188;2022-12-10T03:06:27;31.90;;;23.13;;
9208;SDS011;4639;48.862;9.188;2022-12-10T03:09:05;29.10;;;23.17;;
9208;SDS011;4639;48.862;9.188;2022-12-10T03:11:36;29.27;;;22.83;;
9208;SDS011;4639;48.862;9.188;2022-12-10T03:14:08;31.42;;;23.35;;
9208;SDS011;4639;48.862;9.188;2022-12-10T03:16:44;31.52;;;23.77;;
9208;SDS011;4639;48.862;9.188;2022-12-10T03:19:15;31.55;;;23.65;;
9208;SDS011;4639;48.862;9.188;2022-12-10T03:21:44;29.48;;;23.08;;
9208;SDS011;4639;48.862;9.188;2022-12-10T03:24:11;33.45;;;25.02;;
9208;SDS011;4639;48.862;9.188;2022-12-10T03:26:38;28.85;;;23.10;;
9208;SDS011;4639;48.862;9.188;2022-12-10T03:29:08;30.55;;;23.63;;
9208;SDS011;4639;48.862;9.188;2022-12-10T03:31:47;29.55;;;23.05;;
9208;SDS011;4639;48.862;9.188;2022-12-10T03:34:14;30.80;;;23.08;;
9208;SDS011;4639;48.862;9.188;2022-12-10T03:36:40;29.88;;;23.60;;
9208;SDS011;4639;48.862;9.188;2022-12-10T03:39:07;32.45;;;23.15;;
9208;SDS011;4639;48.862;9.188;2022-12-10T03:41:32;30.13;;;23.42;;
9208;SDS011;4639;48.862;9.188;2022-12-10T03:43:58;36.55;;;24.95;;
9208;SDS011;4639;48.862;9.188;2022-12-10T03:46:25;32.63;;;24.48;;
9208;SDS011;4639;48.862;9.188;2022-12-10T03:48:53;32.25;;;24.65;;
9208;SDS011;4639;48.862;9.188;2022-12-10T03:51:19;30.20;;;23.70;;
9208;SDS011;4639;48.862;9.188;2022-12-10T03:53:45;32.63;;;24.35;;
9208;SDS011;4639;48.862;9.188;2022-12-10T03:56:11;32.08;;;23.65;;
9208;SDS011;4639;48.862;9.188;2022-12-10T03:58:36;32.10;;;23.25;;
9208;SDS011;4639;48.862;9.188;2022-12-10T04:01:05;31.88;;;23.77;;
9208;SDS011;4639;48.862;9.188;2022-12-10T04:03:33;28.52;;;22.25;;
9208;SDS011;4639;48.862;9.188;2022-12-10T04:06:02;30.17;;;23.73;;
9208;SDS011;4639;48.862;9.188;2022-12-10T04:08:29;32.78;;;23.20;;
9208;SDS011;4639;48.862;9.188;2022-12-10T04:10:55;30.02;;;22.70;;
9208;SDS011;4639;48.862;9.188;2022-12-10T04:13:26;28.92;;;23.00;;
9208;SDS011;4639;48.862;9.188;2022-12-10T04:16:10;29.23;;;22.63;;
9208;SDS011;4639;48.862;9.188;2022-12-10T04:18:54;34.05;;;24.40;;
9208;SDS011;4639;48.862;9.188;2022-12-10T04:21:20;33.25;;;23.58;;
9208;SDS011;4639;48.862;9.188;2022-12-10T04:24:04;31.92;;;23.65;;
9208;SDS011;4639;48.862;9.188;2022-12-10T04:26:50;33.90;;;23.88;;
9208;SDS011;4639;48.862;9.188;2022-12-10T04:29:22;34.47;;;25.55;;
9208;SDS011;4639;48.862;9.188;2022-12-10T04:31:49;34.00;;;24.73;;
9208;SDS011;4639;48.862;9.188;2022-12-10T04:34:14;33.13;;;25.45;;
9208;SDS011;4639;48.862;9.188;2022-12-10T04:36:40;33.20;;;25.17;;
9208;SDS011;4639;48.862;9.188;2022-12-10T04:39:06;34.40;;;26.13;;
9208;SDS011;4639;48.862;9.188;2022-12-10T04:41:32;37.63;;;25.98;;
9208;SDS011;4639;48.862;9.188;2022-12-10T04:43:57;35.13;;;27.30;;
9208;SDS011;4639;48.862;9.188;2022-12-10T04:46:23;37.83;;;26.73;;
9208;SDS011;4639;48.862;9.188;2022-12-10T04:48:48;31.67;;;25.75;;
9208;SDS011;4639;48.862;9.188;2022-12-10T04:51:14;36.47;;;26.63;;
9208;SDS011;4639;48.862;9.188;2022-12-10T04:53:40;33.25;;;25.95;;
9208;SDS011;4639;48.862;9.188;2022-12-10T04:56:05;37.17;;;27.50;;
9208;SDS011;4639;48.862;9.188;2022-12-10T04:58:32;36.10;;;26.85;;
9208;SDS011;4639;48.862;9.188;2022-12-10T05:01:02;38.20;;;28.02;;
9208;SDS011;4639;48.862;9.188;2022-12-10T05:03:28;38.95;;;27.25;;
9208;SDS011;4639;48.862;9.188;2022-12-10T05:05:54;37.95;;;27.23;;
9208;SDS011;4639;48.862;9.188;2022-12-10T05:08:19;36.92;;;28.23;;
9208;SDS011;4639;48.862;9.188;2022-12-10T05:10:45;37.95;;;28.42;;
9208;SDS011;4639;48.862;9.188;2022-12-10T05:13:10;42.17;;;28.58;;
9208;SDS011;4639;48.862;9.188;2022-12-10T05:15:39;35.88;;;26.83;;
9208;SDS011;4639;48.862;9.188;2022-12-10T05:18:04;39.15;;;29.17;;
9208;SDS011;4639;48.862;9.188;2022-12-10T05:20:30;37.13;;;28.40;;
9208;SDS011;4639;48.862;9.188;2022-12-10T05:22:56;37.45;;;27.88;;
9208;SDS011;4639;48.862;9.188;2022-12-10T05:25:40;41.25;;;29.33;;
9208;SDS011;4639;48.862;9.188;2022-12-10T05:28:18;40.13;;;27.10;;
9208;SDS011;4639;48.862;9.188;2022-12-10T05:30:47;39.13;;;27.55;;
9208;SDS011;4639;48.862;9.188;2022-12-10T05:33:13;36.03;;;26.80;;
9208;SDS011;4639;48.862;9.188;2022-12-10T05:35:39;35.35;;;27.10;;
9208;SDS011;4639;48.862;9.188;2022-12-10T05:38:05;35.70;;;27.05;;
9208;SDS011;4639;48.862;9.188;2022-12-10T05:40:34;36.10;;;26.75;;
9208;SDS011;4639;48.862;9.188;2022-12-10T05:43:02;36.58;;;27.27;;
9208;SDS011;4639;48.862;9.188;2022-12-10T05:45:28;34.97;;;26.52;;
9208;SDS011;4639;48.862;9.188;2022-12-10T05:47:53;34.00;;;26.05;;
9208;SDS011;4639;48.862;9.188;2022-12-10T05:50:19;33.93;;;25.53;;
9208;SDS011;4639;48.862;9.188;2022-12-10T05:52:44;37.63;;;27.65;;
9208;SDS011;4639;48.862;9.188;2022-12-10T05:55:10;35.03;;;27.10;;
9208;SDS011;4639;48.862;9.188;2022-12-10T05:57:36;35.20;;;27.02;;
9208;SDS011;4639;48.862;9.188;2022-12-10T06:00:03;36.70;;;26.17;;
9208;SDS011;4639;48.862;9.188;2022-12-10T06:02:32;36.85;;;26.92;;
9208;SDS011;4639;48.862;9.188;2022-12-10T06:04:57;37.78;;;27.10;;
9208;SDS011;4639;48.862;9.188;2022-12-10T06:07:23;35.05;;;26.60;;
9208;SDS011;4639;48.862;9.188;2022-12-10T06:09:48;36.15;;;26.40;;
9208;SDS011;4639;48.862;9.188;2022-12-10T06:12:14;32.15;;;26.13;;
9208;SDS011;4639;48.862;9.188;2022-12-10T06:14:40;35.88;;;26.83;;
9208;SDS011;4639;48.862;9.188;2022-12-10T06:17:05;37.33;;;27.77;;
9208;SDS011;4639;48.862;9.188;2022-12-10T06:19:31;36.83;;;27.05;;
9208;SDS011;4639;48.862;9.188;2022-12-10T06:21:56;34.70;;;26.45;;
9208;SDS011;4639;48.862;9.188;2022-12-10T06:24:23;36.17;;;26.85;;
9208;SDS011;4639;48.862;9.188;2022-12-10T06:26:49;38.28;;;27.80;;
9208;SDS011;4639;48.862;9.188;2022-12-10T06:29:14;33.17;;;25.95;;
9208;SDS011;4639;48.862;9.188;2022-12-10T06:31:40;36.67;;;27.42;;
9208;SDS011;4639;48.862;9.188;2022-12-10T06:34:05;35.72;;;26.08;;
9208;SDS011;4639;48.862;9.188;2022-12-10T06:36:31;35.13;;;25.67;;
9208;SDS011;4639;48.862;9.188;2022-12-10T06:38:57;36.35;;;26.63;;
9208;SDS011;4639;48.862;9.188;2022-12-10T06:41:23;33.33;;;25.55;;
9208;SDS011;4639;48.862;9.188;2022-12-10T06:43:48;34.50;;;25.38;;
9208;SDS011;4639;48.862;9.188;2022-12-10T06:46:15;34.88;;;24.85;;
9208;SDS011;4639;48.862;9.188;2022-12-10T06:48:42;33.42;;;24.90;;
9208;SDS011;4639;48.862;9.188;2022-12-10T06:51:08;32.55;;;24.95;;
9208;SDS011;4639;48.862;9.188;2022-12-10T06:53:36;29.80;;;23.08;;
9208;SDS011;4639;48.862;9.188;2022-12-10T06:56:04;35.03;;;25.27;;
9208;SDS011;4639;48.862;9.188;2022-12-10T06:58:30;32.08;;;24.20;;
9208;SDS011;4639;48.862;9.188;2022-12-10T07:01:11;32.58;;;24.13;;
9208;SDS011;4639;48.862;9.188;2022-12-10T07:03:39;32.78;;;24.85;;
9208;SDS011;4639;48.862;9.188;2022-12-10T07:06:05;34.08;;;25.55;;
9208;SDS011;4639;48.862;9.188;2022-12-10T07:08:32;31.55;;;24.45;;
9208;SDS011;4639;48.862;9.188;2022-12-10T07:10:58;33.72;;;25.77;;
9208;SDS011;4639;48.862;9.188;2022-12-10T07:13:24;33.92;;;25.98;;
9208;SDS011;4639;48.862;9.188;2022-12-10T07:15:50;32.63;;;25.45;;
9208;SDS011;4639;48.862;9.188;2022-12-10T07:18:15;34.65;;;26.50;;
9208;SDS011;4639;48.862;9.188;2022-12-10T07:20:41;32.45;;;25.80;;
9208;SDS011;4639;48.862;9.188;2022-12-10T07:23:06;36.08;;;26.55;;
9208;SDS011;4639;48.862;9.188;2022-12-10T07:25:32;33.53;;;26.50;;
9208;SDS011;4639;48.862;9.188;2022-12-10T07:27:58;35.15;;;26.73;;
9208;SDS011;4639;48.862;9.188;2022-12-10T07:30:24;34.10;;;26.73;;
9208;SDS011;4639;48.862;9.188;2022-12-10T07:32:49;32.67;;;25.05;;
9208;SDS011;4639;48.862;9.188;2022-12-10T07:35:15;32.08;;;25.33;;
9208;SDS011;4639;48.862;9.188;2022-12-10T07:37:40;32.78;;;25.55;;
9208;SDS011;4639;48.862;9.188;2022-12-10T07:40:06;33.85;;;26.05;;
9208;SDS011;4639;48.862;9.188;2022-12-10T07:42:32;36.83;;;27.05;;
9208;SDS011;4639;48.862;9.188;2022-12-10T07:44:58;33.53;;;26.65;;
9208;SDS011;4639;48.862;9.188;2022-12-10T07:47:24;32.92;;;25.60;;
9208;SDS011;4639;48.862;9.188;2022-12-10T07:49:49;36.00;;;27.15;;
9208;SDS011;4639;48.862;9.188;2022-12-10T07:52:15;33.80;;;25.95;;
9208;SDS011;4639;48.862;9.188;2022-12-10T07:54:40;35.47;;;26.83;;
9208;SDS011;4639;48.862;9.188;2022-12-10T07:57:06;38.03;;;28.27;;
9208;SDS011;4639;48.862;9.188;2022-12-10T07:59:32;33.05;;;26.27;;
9208;SDS011;4639;48.862;9.188;2022-12-10T08:01:57;34.47;;;26.92;;
9208;SDS011;4639;48.862;9.188;2022-12-10T08:04:23;38.90;;;27.98;;
9208;SDS011;4639;48.862;9.188;2022-12-10T08:06:48;32.65;;;25.55;;
9208;SDS011;4639;48.862;9.188;2022-12-10T08:09:14;34.97;;;25.92;;
9208;SDS011;4639;48.862;9.188;2022-12-10T08:11:40;33.65;;;25.77;;
9208;SDS011;4639;48.862;9.188;2022-12-10T08:14:05;36.45;;;26.92;;
9208;SDS011;4639;48.862;9.188;2022-12-10T08:16:31;32.92;;;25.83;;
9208;SDS011;4639;48.862;9.188;2022-12-10T08:18:58;34.72;;;26.40;;
9208;SDS011;4639;48.862;9.188;2022-12-10T08:21:25;37.63;;;26.48;;
9208;SDS011;4639;48.862;9.188;2022-12-10T08:23:52;36.03;;;27.40;;
9208;SDS011;4639;48.862;9.188;2022-12-10T08:26:20;36.63;;;27.60;;
9208;SDS011;4639;48.862;9.188;2022-12-10T08:28:48;32.63;;;25.05;;
9208;SDS011;4639;48.862;9.188;2022-12-10T08:31:14;34.03;;;25.63;;
9208;SDS011;4639;48.862;9.188;2022-12-10T08:33:41;32.42;;;25.85;;
9208;SDS011;4639;48.862;9.188;2022-12-10T08:36:08;33.38;;;26.00;;
9208;SDS011;4639;48.862;9.188;2022-12-10T08:38:36;33.38;;;25.90;;
9208;SDS011;4639;48.862;9.188;2022-12-10T08:41:08;33.70;;;27.50;;
9208;SDS011;4639;48.862;9.188;2022-12-10T08:43:38;33.05;;;26.75;;
9208;SDS011;4639;48.862;9.188;2022-12-10T08:46:04;33.28;;;25.27;;
9208;SDS011;4639;48.862;9.188;2022-12-10T08:48:30;36.97;;;25.83;;
9208;SDS011;4639;48.862;9.188;2022-12-10T08:50:56;32.88;;;26.02;;
9208;SDS011;4639;48.862;9.188;2022-12-10T08:53:22;34.05;;;25.98;;
9208;SDS011;4639;48.862;9.188;2022-12-10T08:55:51;32.30;;;26.02;;
9208;SDS011;4639;48.862;9.188;2022-12-10T08:58:17;33.67;;;24.50;;
9208;SDS011;4639;48.862;9.188;2022-12-10T09:00:43;31.63;;;24.75;;
9208;SDS011;4639;48.862;9.188;2022-12-10T09:03:09;31.80;;;24.90;;
9208;SDS011;4639;48.862;9.188;2022-12-10T09:05:35;31.65;;;26.50;;
9208;SDS011;4639;48.862;9.188;2022-12-10T09:08:01;32.70;;;26.77;;
9208;SDS011;4639;48.862;9.188;2022-12-10T09:10:26;33.58;;;24.65;;
9208;SDS011;4639;48.862;9.188;2022-12-10T09:12:52;34.03;;;26.02;;
9208;SDS011;4639;48.862;9.188;2022-12-10T09:15:17;31.08;;;24.23;;
9208;SDS011;4639;48.862;9.188;2022-12-10T09:17:43;28.67;;;23.67;;
9208;SDS011;4639;48.862;9.188;2022-12-10T09:20:09;30.00;;;24.13;;
9208;SDS011;4639;48.862;9.188;2022-12-10T09:22:34;29.85;;;24.27;;
9208;SDS011;4639;48.862;9.188;2022-12-10T09:25:02;30.20;;;23.35;;
9208;SDS011;4639;48.862;9.188;2022-12-10T09:27:29;29.00;;;23.30;;
9208;SDS011;4639;48.862;9.188;2022-12-10T09:29:55;31.25;;;24.63;;
9208;SDS011;4639;48.862;9.188;2022-12-10T09:32:20;28.42;;;23.65;;
9208;SDS011;4639;48.862;9.188;2022-12-10T09:34:46;30.60;;;24.13;;
9208;SDS011;4639;48.862;9.188;2022-12-10T09:37:15;28.70;;;23.20;;
9208;SDS011;4639;48.862;9.188;2022-12-10T09:39:40;30.70;;;23.58;;
9208;SDS011;4639;48.862;9.188;2022-12-10T09:42:21;32.60;;;23.08;;
9208;SDS011;4639;48.862;9.188;2022-12-10T09:53:45;28.90;;;22.70;;
9208;SDS011;4639;48.862;9.188;2022-12-10T09:56:18;31.35;;;23.35;;
9208;SDS011;4639;48.862;9.188;2022-12-10T09:58:47;30.45;;;23.13;;
9208;SDS011;4639;48.862;9.188;2022-12-10T10:01:14;28.60;;;22.33;;
9208;SDS011;4639;48.862;9.188;2022-12-10T10:03:43;30.27;;;22.80;;
9208;SDS011;4639;48.862;9.188;2022-12-10T10:06:10;28.92;;;22.88;;
9208;SDS011;4639;48.862;9.188;2022-12-10T10:08:42;30.17;;;23.05;;
9208;SDS011;4639;48.862;9.188;2022-12-10T10:11:12;30.98;;;23.60;;
9208;SDS011;4639;48.862;9.188;2022-12-10T10:13:44;28.23;;;22.20;;
9208;SDS011;4639;48.862;9.188;2022-12-10T10:18:55;28.52;;;22.67;;
9208;SDS011;4639;48.862;9.188;2022-12-10T10:21:38;27.92;;;23.02;;
9208;SDS011;4639;48.862;9.188;2022-12-10T10:24:06;28.77;;;22.58;;
9208;SDS011;4639;48.862;9.188;2022-12-10T10:26:36;28.85;;;22.83;;
9208;SDS011;4639;48.862;9.188;2022-12-10T10:29:04;28.65;;;22.02;;
9208;SDS011;4639;48.862;9.188;2022-12-10T10:31:33;26.88;;;22.65;;
9208;SDS011;4639;48.862;9.188;2022-12-10T10:34:01;27.08;;;21.38;;
9208;SDS011;4639;48.862;9.188;2022-12-10T10:36:34;26.70;;;22.63;;
9208;SDS011;4639;48.862;9.188;2022-12-10T10:39:09;26.33;;;22.17;;
9208;SDS011;4639;48.862;9.188;2022-12-10T10:41:44;28.60;;;22.27;;
9208;SDS011;4639;48.862;9.188;2022-12-10T10:44:21;28.92;;;22.58;;
9208;SDS011;4639;48.862;9.188;2022-12-10T10:46:52;27.30;;;22.58;;
9208;SDS011;4639;48.862;9.188;2022-12-10T10:49:24;30.10;;;22.42;;
9208;SDS011;4639;48.862;9.188;2022-12-10T10:52:27;28.95;;;22.35;;
9208;SDS011;4639;48.862;9.188;2022-12-10T10:54:46;27.88;;;22.30;;
9208;SDS011;4639;48.862;9.188;2022-12-10T10:59:54;27.75;;;22.65;;
9208;SDS011;4639;48.862;9.188;2022-12-10T11:05:05;29.92;;;21.70;;
9208;SDS011;4639;48.862;9.188;2022-12-10T11:07:34;25.73;;;22.25;;
9208;SDS011;4639;48.862;9.188;2022-12-10T11:10:03;28.70;;;23.45;;
9208;SDS011;4639;48.862;9.188;2022-12-10T11:12:41;26.45;;;21.38;;
9208;SDS011;4639;48.862;9.188;2022-12-10T11:17:48;30.23;;;22.27;;
9208;SDS011;4639;48.862;9.188;2022-12-10T11:23:28;27.42;;;21.90;;
9208;SDS011;4639;48.862;9.188;2022-12-10T11:28:31;29.00;;;22.25;;
9208;SDS011;4639;48.862;9.188;2022-12-10T11:31:21;26.40;;;21.75;;
9208;SDS011;4639;48.862;9.188;2022-12-10T11:37:00;27.67;;;21.77;;
9208;SDS011;4639;48.862;9.188;2022-12-10T11:40:12;24.75;;;21.20;;
9208;SDS011;4639;48.862;9.188;2022-12-10T11:45:09;25.63;;;21.00;;
9208;SDS011;4639;48.862;9.188;2022-12-10T11:50:19;25.20;;;20.45;;
9208;SDS011;4639;48.862;9.188;2022-12-10T11:52:51;28.10;;;21.05;;
9208;SDS011;4639;48.862;9.188;2022-12-10T11:55:23;29.98;;;21.20;;
9208;SDS011;4639;48.862;9.188;2022-12-10T11:58:17;27.35;;;20.45;;
9208;SDS011;4639;48.862;9.188;2022-12-10T12:01:00;27.00;;;21.58;;
9208;SDS011;4639;48.862;9.188;2022-12-10T12:04:10;23.65;;;19.45;;
9208;SDS011;4639;48.862;9.188;2022-12-10T12:06:54;25.55;;;20.30;;
9208;SDS011;4639;48.862;9.188;2022-12-10T12:10:01;23.92;;;19.23;;
9208;SDS011;4639;48.862;9.188;2022-12-10T12:13:33;24.27;;;18.80;;
9208;SDS011;4639;48.862;9.188;2022-12-10T12:15:37;21.20;;;17.55;;
9208;SDS011;4639;48.862;9.188;2022-12-10T12:20:49;21.75;;;18.00;;
9208;SDS011;4639;48.862;9.188;2022-12-10T12:26:08;22.58;;;18.25;;
9208;SDS011;4639;48.862;9.188;2022-12-10T12:28:47;26.02;;;19.83;;
9208;SDS011;4639;48.862;9.188;2022-12-10T12:31:19;25.17;;;19.30;;
9208;SDS011;4639;48.862;9.188;2022-12-10T12:33:53;23.45;;;19.00;;
9208;SDS011;4639;48.862;9.188;2022-12-10T12:36:29;22.50;;;18.85;;
9208;SDS011;4639;48.862;9.188;2022-12-10T12:39:00;20.20;;;17.95;;
9208;SDS011;4639;48.862;9.188;2022-12-10T12:44:22;23.10;;;17.75;;
9208;SDS011;4639;48.862;9.188;2022-12-10T12:47:09;21.77;;;17.80;;
9208;SDS011;4639;48.862;9.188;2022-12-10T12:49:44;25.77;;;17.95;;
9208;SDS011;4639;48.862;9.188;2022-12-10T12:54:54;20.75;;;17.55;;
9208;SDS011;4639;48.862;9.188;2022-12-10T13:00:38;20.77;;;16.60;;
9208;SDS011;4639;48.862;9.188;2022-12-10T13:03:08;20.20;;;16.80;;
9208;SDS011;4639;48.862;9.188;2022-12-10T13:05:38;24.30;;;19.38;;
9208;SDS011;4639;48.862;9.188;2022-12-10T13:10:48;23.35;;;18.10;;
9208;SDS011;4639;48.862;9.188;2022-12-10T13:13:22;23.30;;;18.83;;
9208;SDS011;4639;48.862;9.188;2022-12-10T13:24:17;20.90;;;18.10;;
9208;SDS011;4639;48.862;9.188;2022-12-10T13:29:53;19.83;;;16.38;;
9208;SDS011;4639;48.862;9.188;2022-12-10T13:32:44;26.83;;;20.85;;
9208;SDS011;4639;48.862;9.188;2022-12-10T13:40:26;29.00;;;23.00;;
9208;SDS011;4639;48.862;9.188;2022-12-10T13:43:01;27.52;;;21.33;;
9208;SDS011;4639;48.862;9.188;2022-12-10T13:48:54;29.15;;;22.98;;
9208;SDS011;4639;48.862;9.188;2022-12-10T13:51:23;30.08;;;22.10;;
9208;SDS011;4639;48.862;9.188;2022-12-10T13:56:53;33.05;;;24.65;;
9208;SDS011;4639;48.862;9.188;2022-12-10T14:07:26;31.80;;;24.17;;
9208;SDS011;4639;48.862;9.188;2022-12-10T14:09:53;33.15;;;25.40;;
9208;SDS011;4639;48.862;9.188;2022-12-10T14:12:25;31.75;;;22.77;;
9208;SDS011;4639;48.862;9.188;2022-12-10T14:15:03;31.50;;;23.45;;
9208;SDS011;4639;48.862;9.188;2022-12-10T14:17:40;34.45;;;23.48;;
9208;SDS011;4639;48.862;9.188;2022-12-10T14:20:11;29.73;;;23.65;;
9208;SDS011;4639;48.862;9.188;2022-12-10T14:22:48;31.33;;;24.40;;
9208;SDS011;4639;48.862;9.188;2022-12-10T14:25:16;29.55;;;22.63;;
9208;SDS011;4639;48.862;9.188;2022-12-10T14:27:49;33.10;;;24.02;;
9208;SDS011;4639;48.862;9.188;2022-12-10T14:32:46;31.80;;;22.05;;
9208;SDS011;4639;48.862;9.188;2022-12-10T14:35:15;29.17;;;23.67;;
9208;SDS011;4639;48.862;9.188;2022-12-10T14:37:44;28.58;;;22.52;;
9208;SDS011;4639;48.862;9.188;2022-12-10T14:40:29;30.75;;;22.58;;
9208;SDS011;4639;48.862;9.188;2022-12-10T14:43:02;27.30;;;20.90;;
9208;SDS011;4639;48.862;9.188;2022-12-10T14:45:32;27.35;;;21.60;;
9208;SDS011;4639;48.862;9.188;2022-12-10T14:48:22;28.00;;;21.40;;
9208;SDS011;4639;48.862;9.188;2022-12-10T14:50:48;28.45;;;22.25;;
9208;SDS011;4639;48.862;9.188;2022-12-10T14:53:16;36.30;;;23.73;;
9208;SDS011;4639;48.862;9.188;2022-12-10T14:55:48;30.95;;;23.38;;
9208;SDS011;4639;48.862;9.188;2022-12-10T14:58:39;31.15;;;24.10;;
9208;SDS011;4639;48.862;9.188;2022-12-10T15:01:06;31.38;;;23.95;;
9208;SDS011;4639;48.862;9.188;2022-12-10T15:03:39;31.50;;;23.38;;
9208;SDS011;4639;48.862;9.188;2022-12-10T15:06:12;31.73;;;23.42;;
9208;SDS011;4639;48.862;9.188;2022-12-10T15:08:42;31.08;;;21.27;;
9208;SDS011;4639;48.862;9.188;2022-12-10T15:11:14;34.95;;;24.33;;
9208;SDS011;4639;48.862;9.188;2022-12-10T15:13:43;29.38;;;23.08;;
9208;SDS011;4639;48.862;9.188;2022-12-10T15:16:17;41.50;;;27.05;;
9208;SDS011;4639;48.862;9.188;2022-12-10T15:18:53;34.08;;;24.45;;
9208;SDS011;4639;48.862;9.188;2022-12-10T15:21:21;34.47;;;25.15;;
9208;SDS011;4639;48.862;9.188;2022-12-10T15:23:50;34.40;;;25.30;;
9208;SDS011;4639;48.862;9.188;2022-12-10T15:26:34;35.47;;;24.30;;
9208;SDS011;4639;48.862;9.188;2022-12-10T15:34:39;41.45;;;27.80;;
9208;SDS011;4639;48.862;9.188;2022-12-10T15:37:13;35.03;;;23.30;;
9208;SDS011;4639;48.862;9.188;2022-12-10T15:39:44;30.83;;;24.05;;
9208;SDS011;4639;48.862;9.188;2022-12-10T15:42:26;29.52;;;23.52;;
9208;SDS011;4639;48.862;9.188;2022-12-10T15:44:58;28.98;;;23.42;;
9208;SDS011;4639;48.862;9.188;2022-12-10T15:47:26;32.30;;;25.15;;
9208;SDS011;4639;48.862;9.188;2022-12-10T15:49:53;30.30;;;23.23;;
9208;SDS011;4639;48.862;9.188;2022-12-10T15:52:24;33.78;;;25.75;;
9208;SDS011;4639;48.862;9.188;2022-12-10T15:54:53;30.08;;;23.40;;
9208;SDS011;4639;48.862;9.188;2022-12-10T15:57:21;28.58;;;23.42;;
9208;SDS011;4639;48.862;9.188;2022-12-10T15:59:50;32.95;;;23.95;;
9208;SDS011;4639;48.862;9.188;2022-12-10T16:05:00;31.23;;;23.50;;
9208;SDS011;4639;48.862;9.188;2022-12-10T16:07:25;29.80;;;22.55;;
9208;SDS011;4639;48.862;9.188;2022-12-10T16:09:51;28.00;;;22.27;;
9208;SDS011;4639;48.862;9.188;2022-12-10T16:12:17;34.63;;;24.20;;
9208;SDS011;4639;48.862;9.188;2022-12-10T16:14:47;29.48;;;22.13;;
9208;SDS011;4639;48.862;9.188;2022-12-10T16:17:21;31.52;;;23.98;;
9208;SDS011;4639;48.862;9.188;2022-12-10T16:19:47;29.98;;;22.85;;
9208;SDS011;4639;48.862;9.188;2022-12-10T16:22:13;29.52;;;22.98;;
9208;SDS011;4639;48.862;9.188;2022-12-10T16:24:39;29.77;;;22.70;;
9208;SDS011;4639;48.862;9.188;2022-12-10T16:27:08;31.25;;;24.08;;
9208;SDS011;4639;48.862;9.188;2022-12-10T16:29:39;33.67;;;22.65;;
9208;SDS011;4639;48.862;9.188;2022-12-10T16:32:05;31.73;;;23.35;;
9208;SDS011;4639;48.862;9.188;2022-12-10T16:34:30;30.75;;;22.25;;
9208;SDS011;4639;48.862;9.188;2022-12-10T16:36:56;31.10;;;24.23;;
9208;SDS011;4639;48.862;9.188;2022-12-10T16:39:21;30.40;;;23.67;;
9208;SDS011;4639;48.862;9.188;2022-12-10T16:41:51;28.38;;;21.55;;
9208;SDS011;4639;48.862;9.188;2022-12-10T16:44:17;29.45;;;22.02;;
9208;SDS011;4639;48.862;9.188;2022-12-10T16:46:43;30.80;;;21.58;;